Time;durP1;ratioP1;P1;durP2;ratioP2;P2;SDS_P1;SDS_P2;PMS_P1;PMS_P2;Temp;Humidity;BMP_temperature;BMP_pressure;BME280_temperature;BME280_humidity;BME280_pressure;Samples;Min_cycle;Max_cycle;Signal;HPM_P1;HPM_P2
2021/01/28 17:49:52;;;;;;;;;97.00;89.00;;;;;;;;5113421;27;13526;-69
2021/01/28 17:52:18;;;;;;;;;103.50;91.75;;;;;;;;5096243;28;8839;-69
2021/01/28 17:54:44;;;;;;;;;103.75;92.50;;;;;;;;5095981;28;8851;-67
2021/01/28 17:57:10;;;;;;;;;103.00;94.25;;;;;;;;5007407;27;11037;-66
2021/01/28 17:59:36;;;;;;;;;102.50;86.00;;;;;;;;5036383;28;8839;-65
2021/01/28 18:02:03;;;;;;;;;101.75;89.50;;;;;;;;5037712;28;8954;-68
2021/01/28 18:04:29;;;;;;;;;98.25;89.00;;;;;;;;5035599;28;8955;-66
2021/01/28 18:06:55;;;;;;;;;100.50;91.00;;;;;;;;5038339;28;9599;-66
2021/01/28 18:09:21;;;;;;;;;101.75;92.25;;;;;;;;5033775;28;8862;-66
2021/01/28 18:11:50;;;;;;;;;101.25;89.00;;;;;;;;5037425;28;8884;-67
2021/01/28 18:14:16;;;;;;;;;104.50;93.75;;;;;;;;5036194;28;8859;-68
2021/01/28 18:16:42;;;;;;;;;104.75;89.00;;;;;;;;5036816;28;8855;-72
2021/01/28 18:19:08;;;;;;;;;101.50;92.00;;;;;;;;5036490;28;8856;-69
2021/01/28 18:21:35;;;;;;;;;102.00;86.50;;;;;;;;5035386;28;8958;-69
2021/01/28 18:24:02;;;;;;;;;100.75;88.25;;;;;;;;5037571;28;8840;-69
2021/01/28 18:26:27;;;;;;;;;97.00;83.75;;;;;;;;5034949;28;8968;-66
2021/01/28 18:28:53;;;;;;;;;99.75;82.50;;;;;;;;5032087;28;8883;-66
2021/01/28 18:31:20;;;;;;;;;105.00;95.75;;;;;;;;5032934;28;8843;-63
2021/01/28 18:33:46;;;;;;;;;105.00;94.50;;;;;;;;5035292;28;8956;-65
2021/01/28 18:36:12;;;;;;;;;112.25;94.75;;;;;;;;5034013;28;8986;-65
2021/01/28 18:38:38;;;;;;;;;102.75;91.75;;;;;;;;5030181;28;8850;-64
2021/01/28 18:41:05;;;;;;;;;94.75;83.25;;;;;;;;5031584;28;8978;-65
2021/01/28 18:43:31;;;;;;;;;106.25;94.25;;;;;;;;5026898;28;8874;-65
2021/01/28 18:45:57;;;;;;;;;111.50;94.75;;;;;;;;5031713;28;8856;-65
2021/01/28 18:48:23;;;;;;;;;100.75;90.50;;;;;;;;5033152;28;9002;-65
2021/01/28 18:50:49;;;;;;;;;100.50;86.25;;;;;;;;5035335;28;8848;-64
2021/01/28 18:53:15;;;;;;;;;99.75;89.00;;;;;;;;5033763;28;8852;-65
2021/01/28 18:55:41;;;;;;;;;102.50;91.25;;;;;;;;4987912;28;11446;-66
2021/01/28 18:58:08;;;;;;;;;101.50;93.75;;;;;;;;5031155;28;8840;-66
2021/01/28 19:00:35;;;;;;;;;97.00;87.50;;;;;;;;5023354;28;8916;-67
2021/01/28 19:03:01;;;;;;;;;100.50;92.75;;;;;;;;5022474;28;8971;-64
2021/01/28 19:05:28;;;;;;;;;99.75;91.50;;;;;;;;5019170;28;8839;-65
2021/01/28 19:07:54;;;;;;;;;98.50;89.00;;;;;;;;5023137;28;8974;-65
2021/01/28 19:10:23;;;;;;;;;101.00;90.75;;;;;;;;5019339;28;8976;-64
2021/01/28 19:12:53;;;;;;;;;99.25;91.00;;;;;;;;5022329;28;8883;-65
2021/01/28 19:15:21;;;;;;;;;100.00;86.50;;;;;;;;5015987;28;8823;-64
2021/01/28 19:17:47;;;;;;;;;99.75;87.50;;;;;;;;5021523;28;9968;-64
2021/01/28 19:20:13;;;;;;;;;108.50;92.50;;;;;;;;5020801;28;8860;-64
2021/01/28 19:22:39;;;;;;;;;101.25;91.50;;;;;;;;5020087;28;9000;-64
2021/01/28 19:25:05;;;;;;;;;100.25;93.00;;;;;;;;5021220;28;8967;-65
2021/01/28 19:27:31;;;;;;;;;99.50;89.75;;;;;;;;5018993;28;8877;-65
2021/01/28 19:30:02;;;;;;;;;107.50;96.25;;;;;;;;5021538;28;8868;-65
2021/01/28 19:32:28;;;;;;;;;105.25;94.00;;;;;;;;5008111;28;8846;-64
2021/01/28 19:34:54;;;;;;;;;96.25;87.75;;;;;;;;5022319;28;8975;-65
2021/01/28 19:37:20;;;;;;;;;100.75;93.00;;;;;;;;5018744;28;8838;-64
2021/01/28 19:39:46;;;;;;;;;100.00;90.75;;;;;;;;5019339;28;8893;-67
2021/01/28 19:42:12;;;;;;;;;98.75;88.25;;;;;;;;5007979;28;8873;-65
2021/01/28 19:44:38;;;;;;;;;99.75;88.00;;;;;;;;5017990;28;8867;-65
2021/01/28 19:47:04;;;;;;;;;110.00;95.75;;;;;;;;5020815;28;8848;-66
2021/01/28 19:49:31;;;;;;;;;101.25;94.50;;;;;;;;5010788;28;8884;-68
2021/01/28 19:51:57;;;;;;;;;102.00;88.25;;;;;;;;5009666;28;8879;-65
2021/01/28 19:54:23;;;;;;;;;100.50;87.25;;;;;;;;5012185;28;8957;-66
2021/01/28 19:56:52;;;;;;;;;96.75;87.00;;;;;;;;5013781;28;8903;-66
2021/01/28 19:59:18;;;;;;;;;101.25;92.00;;;;;;;;5014128;28;8848;-67
2021/01/28 20:01:44;;;;;;;;;102.75;91.75;;;;;;;;5013079;28;8992;-66
2021/01/28 20:04:09;;;;;;;;;100.00;90.00;;;;;;;;5009601;28;8867;-66
2021/01/28 20:06:36;;;;;;;;;103.00;89.25;;;;;;;;5011804;28;8996;-66
2021/01/28 20:09:02;;;;;;;;;98.50;91.00;;;;;;;;5013334;28;8897;-67
2021/01/28 20:11:28;;;;;;;;;99.75;91.25;;;;;;;;5010290;28;10210;-66
2021/01/28 20:13:54;;;;;;;;;100.00;90.25;;;;;;;;5013946;28;8860;-66
2021/01/28 20:16:20;;;;;;;;;104.25;93.00;;;;;;;;5013217;28;8834;-67
2021/01/28 20:18:46;;;;;;;;;102.00;89.00;;;;;;;;5013349;28;8879;-67
2021/01/28 20:21:12;;;;;;;;;99.00;91.00;;;;;;;;5012831;28;8855;-67
2021/01/28 20:23:39;;;;;;;;;97.25;85.00;;;;;;;;5012738;28;9692;-66
2021/01/28 20:26:05;;;;;;;;;94.25;83.25;;;;;;;;5012973;28;8854;-66
2021/01/28 20:28:31;;;;;;;;;97.75;89.00;;;;;;;;5011670;28;8859;-66
2021/01/28 20:30:57;;;;;;;;;98.50;85.75;;;;;;;;5017054;28;9014;-66
2021/01/28 20:33:23;;;;;;;;;97.75;84.75;;;;;;;;5011785;28;8878;-68
2021/01/28 20:35:49;;;;;;;;;99.50;92.75;;;;;;;;5018918;28;8844;-75
2021/01/28 20:38:15;;;;;;;;;99.25;86.00;;;;;;;;5021274;28;8942;-64
2021/01/28 20:40:42;;;;;;;;;102.25;88.00;;;;;;;;5018483;28;8848;-66
2021/01/28 20:43:09;;;;;;;;;96.25;90.25;;;;;;;;5020998;28;8984;-64
2021/01/28 20:45:35;;;;;;;;;99.25;88.25;;;;;;;;5016262;28;8985;-65
2021/01/28 20:48:02;;;;;;;;;100.25;91.50;;;;;;;;5013052;28;8867;-64
2021/01/28 20:50:28;;;;;;;;;102.50;90.75;;;;;;;;5014829;28;8955;-64
2021/01/28 20:52:54;;;;;;;;;109.50;100.00;;;;;;;;5013221;28;8842;-64
2021/01/28 20:55:20;;;;;;;;;98.50;87.00;;;;;;;;5011737;28;8879;-65
2021/01/28 20:57:47;;;;;;;;;104.25;90.75;;;;;;;;5014054;28;9573;-64
2021/01/28 21:00:15;;;;;;;;;106.50;94.75;;;;;;;;5014676;28;9103;-64
2021/01/28 21:02:41;;;;;;;;;104.50;94.00;;;;;;;;5013951;28;8870;-63
2021/01/28 21:05:07;;;;;;;;;100.00;90.75;;;;;;;;5014476;28;8854;-64
2021/01/28 21:07:33;;;;;;;;;98.00;89.00;;;;;;;;5014945;28;8989;-64
2021/01/28 21:09:59;;;;;;;;;70.75;54.25;;;;;;;;5013498;28;9054;-64
2021/01/28 21:12:25;;;;;;;;;108.50;96.00;;;;;;;;5015098;28;9715;-65
2021/01/28 21:14:52;;;;;;;;;97.25;86.75;;;;;;;;5015135;28;9008;-64
2021/01/28 21:17:18;;;;;;;;;97.00;82.25;;;;;;;;5015670;28;8825;-64
2021/01/28 21:19:44;;;;;;;;;99.00;88.00;;;;;;;;5014167;28;9651;-64
2021/01/28 21:22:10;;;;;;;;;98.50;86.50;;;;;;;;5015700;28;8858;-63
2021/01/28 21:24:36;;;;;;;;;96.25;86.00;;;;;;;;5000216;28;8970;-63
2021/01/28 21:27:02;;;;;;;;;95.75;85.50;;;;;;;;5004135;28;8869;-62
2021/01/28 21:29:28;;;;;;;;;98.25;87.00;;;;;;;;4999598;28;8854;-63
2021/01/28 21:31:55;;;;;;;;;102.00;94.75;;;;;;;;5010365;28;9677;-62
2021/01/28 21:34:21;;;;;;;;;96.75;86.25;;;;;;;;5008196;28;8994;-64
2021/01/28 21:36:47;;;;;;;;;107.75;96.50;;;;;;;;5013325;28;8848;-63
2021/01/28 21:39:13;;;;;;;;;99.00;90.25;;;;;;;;5003873;28;8877;-63
2021/01/28 21:41:40;;;;;;;;;102.25;91.25;;;;;;;;5003438;28;8865;-64
2021/01/28 21:44:06;;;;;;;;;97.00;87.25;;;;;;;;5009355;28;8835;-64
2021/01/28 21:46:32;;;;;;;;;98.50;90.00;;;;;;;;5015422;28;8898;-63
2021/01/28 21:48:59;;;;;;;;;101.00;90.25;;;;;;;;5017184;28;8984;-63
2021/01/28 21:51:25;;;;;;;;;101.50;90.50;;;;;;;;5017294;28;8856;-63
2021/01/28 21:53:51;;;;;;;;;56.00;44.75;;;;;;;;5016649;28;8869;-63
2021/01/28 21:56:17;;;;;;;;;105.75;88.25;;;;;;;;5015900;28;8859;-64
2021/01/28 21:58:43;;;;;;;;;95.75;82.25;;;;;;;;5014037;28;9002;-64
2021/01/28 22:01:09;;;;;;;;;101.25;88.75;;;;;;;;5011536;28;8875;-65
2021/01/28 22:03:35;;;;;;;;;103.50;89.25;;;;;;;;5017379;28;8844;-63
2021/01/28 22:06:02;;;;;;;;;103.75;87.25;;;;;;;;5017523;28;9567;-64
2021/01/28 22:08:28;;;;;;;;;97.75;88.00;;;;;;;;5018500;28;8974;-64
2021/01/28 22:10:54;;;;;;;;;98.50;90.25;;;;;;;;5016457;28;8843;-64
2021/01/28 22:13:20;;;;;;;;;97.50;87.75;;;;;;;;5012530;28;9089;-64
2021/01/28 22:15:46;;;;;;;;;95.75;82.75;;;;;;;;4974131;28;10371;-64
2021/01/28 22:18:11;;;;;;;;;99.50;84.50;;;;;;;;4991781;28;8855;-64
2021/01/28 22:20:37;;;;;;;;;96.00;87.25;;;;;;;;4990952;28;8891;-64
2021/01/28 22:23:04;;;;;;;;;98.00;84.25;;;;;;;;4998144;28;8859;-64
2021/01/28 22:25:31;;;;;;;;;96.75;87.50;;;;;;;;4998118;28;9077;-64
2021/01/28 22:27:57;;;;;;;;;99.00;87.25;;;;;;;;4996998;28;8869;-63
2021/01/28 22:30:24;;;;;;;;;98.00;89.00;;;;;;;;4999543;28;8874;-63
2021/01/28 22:32:50;;;;;;;;;91.25;77.00;;;;;;;;4992761;28;8846;-63
2021/01/28 22:35:17;;;;;;;;;97.00;79.75;;;;;;;;5001220;28;9614;-63
2021/01/28 22:37:43;;;;;;;;;96.50;86.50;;;;;;;;5000681;28;8898;-64
2021/01/28 22:40:11;;;;;;;;;96.00;83.50;;;;;;;;5001991;28;8839;-64
2021/01/28 22:42:37;;;;;;;;;97.75;88.25;;;;;;;;5001102;28;8982;-64
2021/01/28 22:45:04;;;;;;;;;99.00;84.25;;;;;;;;5001572;28;8855;-65
2021/01/28 22:47:30;;;;;;;;;96.25;87.50;;;;;;;;5001748;28;8925;-64
2021/01/28 22:49:56;;;;;;;;;92.00;79.00;;;;;;;;5000021;28;8839;-64
2021/01/28 22:52:22;;;;;;;;;99.00;87.00;;;;;;;;4999939;28;8977;-64
2021/01/28 22:54:48;;;;;;;;;97.25;83.25;;;;;;;;4999131;28;8852;-64
2021/01/28 22:57:15;;;;;;;;;100.50;87.25;;;;;;;;4998339;28;8864;-64
2021/01/28 22:59:41;;;;;;;;;94.75;81.50;;;;;;;;5002109;28;9054;-65
2021/01/28 23:02:07;;;;;;;;;97.00;83.50;;;;;;;;5001512;28;8855;-64
2021/01/28 23:04:33;;;;;;;;;95.25;80.00;;;;;;;;5000552;28;8897;-63
2021/01/28 23:06:59;;;;;;;;;98.25;86.00;;;;;;;;5002651;28;8999;-64
2021/01/28 23:09:25;;;;;;;;;98.00;85.75;;;;;;;;4999221;28;8850;-63
2021/01/28 23:11:51;;;;;;;;;92.00;79.00;;;;;;;;5003420;28;8949;-63
2021/01/28 23:14:18;;;;;;;;;98.75;87.25;;;;;;;;5000076;28;8865;-63
2021/01/28 23:16:45;;;;;;;;;100.25;91.50;;;;;;;;5003317;28;8874;-65
2021/01/28 23:19:11;;;;;;;;;93.75;84.50;;;;;;;;5002117;28;8836;-66
2021/01/28 23:21:37;;;;;;;;;97.50;84.25;;;;;;;;5002767;28;8870;-65
2021/01/28 23:24:03;;;;;;;;;103.25;94.75;;;;;;;;5003199;28;8942;-65
2021/01/28 23:26:29;;;;;;;;;101.00;92.50;;;;;;;;5000702;28;8977;-65
2021/01/28 23:28:55;;;;;;;;;94.50;81.75;;;;;;;;5003443;28;8876;-65
2021/01/28 23:31:22;;;;;;;;;100.00;90.00;;;;;;;;5000975;28;8962;-64
2021/01/28 23:33:48;;;;;;;;;98.25;87.25;;;;;;;;5000621;28;8916;-64
2021/01/28 23:36:14;;;;;;;;;99.75;87.00;;;;;;;;5003841;28;8996;-64
2021/01/28 23:38:40;;;;;;;;;97.25;89.75;;;;;;;;5001605;28;8955;-64
2021/01/28 23:41:06;;;;;;;;;100.00;86.00;;;;;;;;5002693;28;8879;-64
2021/01/28 23:43:32;;;;;;;;;104.75;92.25;;;;;;;;5002739;28;8898;-65
2021/01/28 23:45:58;;;;;;;;;101.50;96.00;;;;;;;;5001233;28;8937;-64
2021/01/28 23:48:26;;;;;;;;;104.00;93.75;;;;;;;;5003362;28;8844;-64
2021/01/28 23:50:52;;;;;;;;;101.75;91.50;;;;;;;;5000671;28;8839;-64
2021/01/28 23:53:18;;;;;;;;;99.50;92.00;;;;;;;;4996548;28;8960;-66
2021/01/28 23:55:44;;;;;;;;;107.50;98.75;;;;;;;;5003133;28;8968;-69
2021/01/28 23:58:10;;;;;;;;;102.50;92.75;;;;;;;;4999921;28;8866;-68
